Time;durP1;ratioP1;P1;durP2;ratioP2;P2;SDS_P1;SDS_P2;PMS_P1;PMS_P2;Temp;Humidity;BMP_temperature;BMP_pressure;BME280_temperature;BME280_humidity;BME280_pressure;Samples;Min_cycle;Max_cycle;Signal;HPM_P1;HPM_P2
2024/01/13 00:01:17;;;;;;;29.85;16.25;;;1.10;99.90;;;;;;5011555;28;20675;-61
2024/01/13 00:03:45;;;;;;;30.42;17.13;;;1.10;99.90;;;;;;5011270;28;20642;-60
2024/01/13 00:06:13;;;;;;;33.15;16.80;;;1.20;99.90;;;;;;5011337;28;20247;-61
2024/01/13 00:08:47;;;;;;;28.38;15.10;;;1.10;99.90;;;;;;5011078;28;20322;-59
2024/01/13 00:11:14;;;;;;;30.17;15.75;;;1.10;99.90;;;;;;5011082;28;20631;-61
2024/01/13 00:13:44;;;;;;;26.55;15.30;;;1.10;99.90;;;;;;5015252;28;20226;-60
2024/01/13 00:16:11;;;;;;;30.27;15.90;;;1.10;99.90;;;;;;5014897;28;20235;-61
2024/01/13 00:18:39;;;;;;;27.73;15.85;;;1.10;99.90;;;;;;5014817;28;20606;-61
2024/01/13 00:21:08;;;;;;;28.20;15.77;;;1.10;99.90;;;;;;5014501;28;20266;-62
2024/01/13 00:23:37;;;;;;;28.17;15.88;;;1.10;99.90;;;;;;5014672;28;20210;-61
2024/01/13 00:26:05;;;;;;;29.10;15.30;;;1.10;99.90;;;;;;5014664;28;20199;-60
2024/01/13 00:28:34;;;;;;;28.40;15.80;;;1.10;99.90;;;;;;5014606;28;20219;-61
2024/01/13 00:31:05;;;;;;;29.75;15.93;;;1.10;99.90;;;;;;5014363;28;20577;-61
2024/01/13 00:33:35;;;;;;;30.15;16.83;;;1.20;99.90;;;;;;5014776;28;20215;-61
2024/01/13 00:36:05;;;;;;;25.50;15.23;;;1.10;99.90;;;;;;5014202;28;20258;-61
2024/01/13 00:38:33;;;;;;;28.10;16.15;;;1.10;99.90;;;;;;5014509;28;20246;-61
2024/01/13 00:41:04;;;;;;;27.38;15.68;;;1.20;99.90;;;;;;5019153;28;20230;-61
2024/01/13 00:43:34;;;;;;;33.33;17.35;;;1.20;99.90;;;;;;5029400;28;20211;-61
2024/01/13 00:46:02;;;;;;;29.33;16.63;;;1.10;99.90;;;;;;5025849;28;20211;-60
2024/01/13 00:48:33;;;;;;;32.17;18.08;;;1.20;99.90;;;;;;5014090;28;20318;-61
2024/01/13 00:51:09;;;;;;;29.35;16.48;;;1.20;99.90;;;;;;5014202;28;20195;-61
2024/01/13 00:53:38;;;;;;;28.98;15.63;;;1.20;99.90;;;;;;5014657;28;20211;-60
2024/01/13 00:56:07;;;;;;;28.33;16.42;;;1.20;99.90;;;;;;5014036;28;20588;-60
2024/01/13 00:58:36;;;;;;;26.55;15.82;;;1.20;99.90;;;;;;5013999;28;20723;-60
2024/01/13 01:01:11;;;;;;;30.73;16.58;;;1.10;99.90;;;;;;5013722;28;20310;-61
2024/01/13 01:03:43;;;;;;;33.00;16.17;;;1.10;99.90;;;;;;5013960;28;20214;-61
2024/01/13 01:06:11;;;;;;;32.85;17.55;;;1.10;99.90;;;;;;5013985;28;20199;-61
2024/01/13 01:08:40;;;;;;;31.92;17.38;;;1.10;99.90;;;;;;5018758;28;20227;-61
2024/01/13 01:11:08;;;;;;;28.90;16.13;;;1.10;99.90;;;;;;5013616;28;20206;-61
2024/01/13 01:13:37;;;;;;;28.35;15.75;;;1.20;99.90;;;;;;5013702;28;20207;-60
2024/01/13 01:16:05;;;;;;;30.08;17.05;;;1.20;99.90;;;;;;5013695;28;20235;-60
2024/01/13 01:18:33;;;;;;;31.65;17.23;;;1.10;99.90;;;;;;5013721;28;20309;-61
2024/01/13 01:21:13;;;;;;;34.58;19.58;;;1.10;99.90;;;;;;5013415;28;20273;-60
2024/01/13 01:23:44;;;;;;;34.47;17.95;;;1.10;99.90;;;;;;5013431;28;20235;-60
2024/01/13 01:26:12;;;;;;;34.53;18.92;;;1.10;99.90;;;;;;5013218;28;20204;-59
2024/01/13 01:28:40;;;;;;;34.70;18.58;;;1.10;99.90;;;;;;5013631;28;20237;-60
2024/01/13 01:31:08;;;;;;;37.85;19.70;;;1.00;99.90;;;;;;5013342;28;20200;-61
2024/01/13 01:33:37;;;;;;;33.78;18.77;;;1.00;99.90;;;;;;5013298;28;20665;-60
2024/01/13 01:36:07;;;;;;;42.60;21.63;;;1.10;99.90;;;;;;5013233;28;20645;-60
2024/01/13 01:38:37;;;;;;;36.03;19.58;;;1.10;99.90;;;;;;5013782;28;20730;-60
2024/01/13 01:41:11;;;;;;;36.90;20.02;;;1.10;99.90;;;;;;5017027;28;20319;-61
2024/01/13 01:43:39;;;;;;;36.47;19.77;;;1.10;99.90;;;;;;5013314;28;20235;-60
2024/01/13 01:46:07;;;;;;;37.83;19.58;;;1.10;99.90;;;;;;5013075;28;20215;-60
2024/01/13 01:48:37;;;;;;;37.63;20.55;;;1.10;99.90;;;;;;5013180;28;20318;-61
2024/01/13 01:51:10;;;;;;;40.17;20.45;;;1.10;99.90;;;;;;5012758;28;20203;-61
2024/01/13 01:53:40;;;;;;;36.03;20.08;;;1.10;99.90;;;;;;5015321;28;20234;-60
2024/01/13 01:56:21;;;;;;;38.40;20.75;;;1.10;99.90;;;;;;5022441;28;20261;-60
2024/01/13 01:58:49;;;;;;;40.63;22.33;;;1.10;99.90;;;;;;5012904;28;20231;-61
2024/01/13 02:01:17;;;;;;;39.92;21.23;;;1.00;99.90;;;;;;5012630;28;20227;-61
2024/01/13 02:03:45;;;;;;;41.35;22.77;;;0.90;99.90;;;;;;5012623;28;20852;-59
2024/01/13 02:06:13;;;;;;;39.60;21.33;;;0.90;99.90;;;;;;5013375;28;20207;-59
2024/01/13 02:08:43;;;;;;;44.65;22.65;;;0.80;99.90;;;;;;5013041;28;20280;-59
2024/01/13 02:11:11;;;;;;;43.88;23.73;;;0.80;99.90;;;;;;5012581;28;20200;-61
2024/01/13 02:13:42;;;;;;;43.60;22.70;;;0.70;99.90;;;;;;5012692;28;20207;-61
2024/01/13 02:16:10;;;;;;;43.60;22.55;;;0.70;99.90;;;;;;5012358;28;20286;-60
2024/01/13 02:18:39;;;;;;;47.90;23.40;;;0.70;99.90;;;;;;5012744;28;20223;-61
2024/01/13 02:21:10;;;;;;;45.05;23.48;;;0.70;99.90;;;;;;5012250;28;20592;-60
2024/01/13 02:23:42;;;;;;;47.60;23.95;;;0.70;99.90;;;;;;5012417;28;20641;-60
2024/01/13 02:26:10;;;;;;;46.58;23.67;;;0.70;99.90;;;;;;5016364;28;20203;-60
2024/01/13 02:28:39;;;;;;;47.42;24.33;;;0.60;99.90;;;;;;5012227;28;20806;-61
2024/01/13 02:31:15;;;;;;;41.90;22.60;;;0.70;99.90;;;;;;5012385;28;20199;-60
2024/01/13 02:33:47;;;;;;;45.15;24.95;;;0.70;99.90;;;;;;5012421;28;20266;-61
2024/01/13 02:36:16;;;;;;;44.33;23.90;;;0.80;99.90;;;;;;5011931;28;20643;-60
2024/01/13 02:38:45;;;;;;;52.13;25.40;;;0.80;99.90;;;;;;5012133;28;20226;-60
2024/01/13 02:41:13;;;;;;;41.72;23.63;;;0.90;99.90;;;;;;5011844;28;20227;-61
2024/01/13 02:43:41;;;;;;;44.75;24.90;;;0.90;99.90;;;;;;5012359;28;20247;-61
2024/01/13 02:46:09;;;;;;;47.03;25.17;;;0.90;99.90;;;;;;5012051;28;20273;-60
2024/01/13 02:48:40;;;;;;;47.33;25.33;;;0.80;99.90;;;;;;5012072;28;20328;-60
2024/01/13 02:51:12;;;;;;;44.05;24.15;;;0.80;99.90;;;;;;5011952;28;20528;-61
2024/01/13 02:53:40;;;;;;;47.13;25.42;;;0.80;99.90;;;;;;5014373;28;20266;-59
2024/01/13 02:56:10;;;;;;;44.92;25.60;;;0.80;99.90;;;;;;5011868;28;20246;-61
2024/01/13 02:58:37;;;;;;;42.17;23.58;;;0.80;99.90;;;;;;5011990;28;20314;-61
2024/01/13 03:01:12;;;;;;;45.97;24.98;;;0.80;99.90;;;;;;5011553;28;20219;-61
2024/01/13 03:03:41;;;;;;;42.28;24.10;;;0.80;99.90;;;;;;5011960;28;20254;-59
2024/01/13 03:06:09;;;;;;;44.60;23.83;;;0.80;99.90;;;;;;5011888;28;20295;-60
2024/01/13 03:08:38;;;;;;;44.17;24.35;;;0.80;99.90;;;;;;5011832;28;20227;-61
2024/01/13 03:11:11;;;;;;;47.55;24.05;;;0.90;99.90;;;;;;5011546;28;20203;-60
2024/01/13 03:13:41;;;;;;;46.03;25.02;;;0.90;99.90;;;;;;5011852;28;20203;-60
2024/01/13 03:16:09;;;;;;;44.15;24.13;;;0.90;99.90;;;;;;5011940;28;20291;-61
2024/01/13 03:18:37;;;;;;;47.00;25.13;;;1.00;99.90;;;;;;5011852;28;20249;-61
2024/01/13 03:21:09;;;;;;;43.58;23.70;;;1.00;99.90;;;;;;5011459;28;20203;-60
2024/01/13 03:23:38;;;;;;;40.50;23.40;;;1.00;99.90;;;;;;5011798;28;20313;-60
2024/01/13 03:26:06;;;;;;;48.88;23.77;;;1.00;99.90;;;;;;5011446;28;20210;-60
2024/01/13 03:28:35;;;;;;;46.20;24.20;;;1.00;99.90;;;;;;5011570;28;20314;-61
2024/01/13 03:31:09;;;;;;;42.90;24.38;;;1.00;99.90;;;;;;5011340;28;20261;-60
2024/01/13 03:33:40;;;;;;;41.70;23.65;;;1.00;99.90;;;;;;5011719;28;20203;-61
2024/01/13 03:36:09;;;;;;;44.55;22.67;;;1.00;99.90;;;;;;5011438;28;20199;-62
2024/01/13 03:38:38;;;;;;;49.00;24.88;;;1.00;99.90;;;;;;5011392;28;20237;-61
2024/01/13 03:41:11;;;;;;;42.75;23.23;;;1.00;99.90;;;;;;5011527;28;20338;-61
2024/01/13 03:43:40;;;;;;;44.63;23.23;;;1.00;99.90;;;;;;5011650;28;20234;-61
2024/01/13 03:46:08;;;;;;;47.88;23.80;;;1.00;99.90;;;;;;5011686;28;20234;-61
2024/01/13 03:48:36;;;;;;;44.50;23.83;;;1.00;99.90;;;;;;5015138;28;20712;-60
2024/01/13 03:51:05;;;;;;;43.88;24.50;;;1.00;99.90;;;;;;5015022;28;20220;-60
2024/01/13 03:53:33;;;;;;;41.33;22.85;;;1.00;99.90;;;;;;5015475;28;20207;-61
2024/01/13 03:56:04;;;;;;;42.33;22.70;;;1.00;99.90;;;;;;5022969;28;20699;-61
2024/01/13 03:58:33;;;;;;;42.50;22.50;;;1.00;99.90;;;;;;5017689;28;20275;-61
2024/01/13 04:01:03;;;;;;;38.47;22.35;;;1.00;99.90;;;;;;5034676;28;20292;-61
2024/01/13 04:03:32;;;;;;;41.78;22.38;;;1.10;99.90;;;;;;5034752;28;20244;-60
2024/01/13 04:06:02;;;;;;;39.03;22.52;;;1.10;99.90;;;;;;5034517;28;20293;-60
2024/01/13 04:08:32;;;;;;;44.10;23.48;;;1.10;99.90;;;;;;5035098;28;20265;-62
2024/01/13 04:11:00;;;;;;;43.75;22.75;;;1.10;99.90;;;;;;5031166;28;20203;-60
2024/01/13 04:13:28;;;;;;;43.10;22.27;;;1.10;99.90;;;;;;5014990;28;20265;-60
2024/01/13 04:15:56;;;;;;;45.00;23.10;;;1.00;99.90;;;;;;5025208;28;20592;-61
2024/01/13 04:18:25;;;;;;;43.35;22.40;;;1.00;99.90;;;;;;5018164;28;20291;-60
2024/01/13 04:20:53;;;;;;;37.42;21.38;;;1.00;99.90;;;;;;5024036;28;20210;-61
2024/01/13 04:23:39;;;;;;;40.45;22.27;;;1.00;99.90;;;;;;5014775;28;20280;-61
2024/01/13 04:26:07;;;;;;;40.95;22.55;;;0.90;99.90;;;;;;5014504;28;20625;-60
2024/01/13 04:28:35;;;;;;;43.53;22.80;;;0.90;99.90;;;;;;5014437;28;20770;-61
2024/01/13 04:31:04;;;;;;;41.72;22.40;;;1.00;99.90;;;;;;5025844;28;20302;-60
2024/01/13 04:33:34;;;;;;;42.30;22.92;;;0.90;99.90;;;;;;5034482;28;20238;-60
2024/01/13 04:36:03;;;;;;;44.33;23.40;;;1.00;99.90;;;;;;5025646;28;20203;-61
2024/01/13 04:38:30;;;;;;;43.13;23.60;;;1.00;99.90;;;;;;5026511;28;20261;-61
2024/01/13 04:40:59;;;;;;;43.22;23.35;;;0.90;99.90;;;;;;5021379;28;20204;-61
2024/01/13 04:43:26;;;;;;;44.42;23.63;;;0.90;99.90;;;;;;5014000;28;20661;-61
2024/01/13 04:45:54;;;;;;;45.05;23.77;;;0.90;99.90;;;;;;5014069;28;20239;-61
2024/01/13 04:48:22;;;;;;;45.75;24.60;;;0.80;99.90;;;;;;5022283;28;20294;-61
2024/01/13 04:50:51;;;;;;;43.38;24.27;;;0.80;99.90;;;;;;5023618;28;20208;-61
2024/01/13 04:53:19;;;;;;;47.47;24.73;;;0.80;99.90;;;;;;5023033;28;20576;-61
2024/01/13 04:55:47;;;;;;;45.97;25.02;;;0.80;99.90;;;;;;5026714;28;20214;-61
2024/01/13 04:58:15;;;;;;;46.45;25.00;;;0.80;99.90;;;;;;5028116;28;20230;-59
2024/01/13 05:00:43;;;;;;;50.10;25.92;;;0.70;99.90;;;;;;5066090;22;20315;-57
2024/01/13 05:03:11;;;;;;;46.03;24.27;;;0.70;99.90;;;;;;5065132;28;20217;-57
2024/01/13 05:05:39;;;;;;;51.17;25.30;;;0.70;99.90;;;;;;5062701;28;20206;-60
2024/01/13 05:08:09;;;;;;;47.65;25.50;;;0.70;99.90;;;;;;5054587;28;20339;-56
2024/01/13 05:10:36;;;;;;;54.90;26.38;;;0.70;99.90;;;;;;5067233;28;20279;-57
2024/01/13 05:13:05;;;;;;;47.45;24.83;;;0.70;99.90;;;;;;5073711;28;20198;-58
2024/01/13 05:15:32;;;;;;;48.53;24.00;;;0.70;99.90;;;;;;5073161;28;20197;-57
2024/01/13 05:18:00;;;;;;;48.67;25.83;;;0.70;99.90;;;;;;5073219;28;20204;-58
2024/01/13 05:20:29;;;;;;;48.40;24.67;;;0.60;99.90;;;;;;5071008;28;20221;-57
2024/01/13 05:22:57;;;;;;;45.88;25.20;;;0.60;99.90;;;;;;5073008;28;20709;-57
2024/01/13 05:25:26;;;;;;;46.00;25.13;;;0.70;99.90;;;;;;5073197;28;20284;-57
2024/01/13 05:27:54;;;;;;;47.97;24.77;;;0.70;99.90;;;;;;5073216;28;20663;-59
2024/01/13 05:30:22;;;;;;;48.05;25.58;;;0.70;99.90;;;;;;5072678;28;20654;-59
2024/01/13 05:32:50;;;;;;;46.50;25.52;;;0.80;99.90;;;;;;5073100;28;20255;-59
2024/01/13 05:35:18;;;;;;;48.90;25.00;;;0.80;99.90;;;;;;5072496;28;20209;-59
2024/01/13 05:37:46;;;;;;;46.45;24.90;;;0.80;99.90;;;;;;5069440;28;20209;-58
2024/01/13 05:40:14;;;;;;;42.50;23.63;;;0.90;99.90;;;;;;5072359;28;20248;-58
2024/01/13 05:42:43;;;;;;;45.88;24.95;;;0.90;99.90;;;;;;5072621;28;20243;-58
2024/01/13 05:45:11;;;;;;;44.83;24.08;;;0.90;99.90;;;;;;5072260;28;20666;-59
2024/01/13 05:47:39;;;;;;;46.42;23.33;;;0.90;99.90;;;;;;5072809;28;20259;-58
2024/01/13 05:50:08;;;;;;;44.63;25.23;;;0.90;99.90;;;;;;5063955;28;20263;-58
2024/01/13 05:52:36;;;;;;;47.13;24.98;;;0.90;99.90;;;;;;5072723;28;20639;-57
2024/01/13 05:55:05;;;;;;;51.50;26.17;;;0.80;99.90;;;;;;5072353;28;20754;-59
2024/01/13 05:57:33;;;;;;;46.92;24.17;;;0.80;99.90;;;;;;5069676;28;20730;-59
2024/01/13 06:00:03;;;;;;;45.10;24.52;;;0.80;99.90;;;;;;5071171;28;20273;-58
2024/01/13 06:02:31;;;;;;;46.97;25.08;;;0.80;99.90;;;;;;5072219;28;20287;-58
2024/01/13 06:04:59;;;;;;;42.75;24.10;;;0.80;99.90;;;;;;5072078;28;20213;-59
2024/01/13 06:07:27;;;;;;;44.60;23.17;;;0.80;99.90;;;;;;5072486;28;20197;-59
2024/01/13 06:10:07;;;;;;;44.95;23.88;;;0.80;99.90;;;;;;5071064;28;20725;-58
2024/01/13 06:12:35;;;;;;;42.72;23.75;;;0.80;99.90;;;;;;5072412;28;20198;-59
2024/01/13 06:15:07;;;;;;;44.75;24.25;;;0.80;99.90;;;;;;5071927;28;20213;-59
2024/01/13 06:17:35;;;;;;;45.67;23.88;;;0.70;99.90;;;;;;5070608;28;20205;-57
2024/01/13 06:20:03;;;;;;;45.17;23.85;;;0.80;99.90;;;;;;5068185;28;20236;-58
2024/01/13 06:22:31;;;;;;;52.58;25.70;;;0.80;99.90;;;;;;5065195;28;20222;-59
2024/01/13 06:24:59;;;;;;;42.58;23.70;;;0.80;99.90;;;;;;5067918;28;20713;-58
2024/01/13 06:27:27;;;;;;;43.17;23.10;;;0.80;99.90;;;;;;5067252;28;20233;-60
2024/01/13 06:29:55;;;;;;;44.15;23.00;;;0.70;99.90;;;;;;5069001;28;20254;-59
2024/01/13 06:32:24;;;;;;;44.90;22.55;;;0.70;99.90;;;;;;5072267;28;20204;-57
2024/01/13 06:34:52;;;;;;;47.53;24.85;;;0.70;99.90;;;;;;5071931;28;20201;-57
2024/01/13 06:37:20;;;;;;;41.63;22.50;;;0.70;99.90;;;;;;5071913;28;20651;-58
2024/01/13 06:39:48;;;;;;;43.15;22.77;;;0.80;99.90;;;;;;5071411;28;20336;-62
2024/01/13 06:42:16;;;;;;;43.35;22.83;;;0.80;99.90;;;;;;5071905;28;20201;-58
2024/01/13 06:44:44;;;;;;;42.45;21.23;;;0.80;99.90;;;;;;5071886;28;20225;-58
2024/01/13 06:47:12;;;;;;;38.25;20.73;;;0.90;99.90;;;;;;5071805;28;20292;-57
2024/01/13 06:49:41;;;;;;;46.10;22.70;;;0.80;99.90;;;;;;5071265;28;20725;-58
2024/01/13 06:52:12;;;;;;;44.17;22.00;;;0.80;99.90;;;;;;5071583;28;20241;-57
2024/01/13 06:54:41;;;;;;;38.65;21.35;;;0.70;99.90;;;;;;5071660;28;20208;-57
2024/01/13 06:57:08;;;;;;;40.65;22.58;;;0.70;99.90;;;;;;5071616;28;20213;-57
2024/01/13 06:59:36;;;;;;;37.78;21.58;;;0.70;99.90;;;;;;5071192;28;20240;-60
2024/01/13 07:02:04;;;;;;;41.88;22.15;;;0.70;99.90;;;;;;5071620;28;20205;-59
2024/01/13 07:04:36;;;;;;;45.10;22.55;;;0.60;99.90;;;;;;5071647;28;20263;-60
2024/01/13 07:07:06;;;;;;;40.30;21.00;;;0.60;99.90;;;;;;5071174;28;20292;-62
2024/01/13 07:09:33;;;;;;;37.67;20.70;;;0.70;99.90;;;;;;5071201;28;20232;-58
2024/01/13 07:12:01;;;;;;;34.35;19.90;;;0.80;99.90;;;;;;5071357;28;20256;-57
2024/01/13 07:14:30;;;;;;;35.92;20.40;;;0.80;99.90;;;;;;5071690;28;20284;-58
2024/01/13 07:16:58;;;;;;;35.90;20.45;;;0.80;99.90;;;;;;5071243;28;20212;-61
2024/01/13 07:19:26;;;;;;;35.30;19.23;;;0.90;99.90;;;;;;5071202;28;20224;-59
2024/01/13 07:21:55;;;;;;;32.53;19.52;;;0.90;99.90;;;;;;5075846;28;20211;-60
2024/01/13 07:24:24;;;;;;;35.50;19.67;;;0.90;99.90;;;;;;5078256;28;20308;-60
2024/01/13 07:26:52;;;;;;;33.22;18.52;;;0.90;99.90;;;;;;5077973;28;20200;-58
2024/01/13 07:29:21;;;;;;;31.60;18.60;;;0.90;99.90;;;;;;5077816;28;20228;-56
2024/01/13 07:31:49;;;;;;;32.60;18.17;;;0.90;99.90;;;;;;5077680;28;20654;-60
2024/01/13 07:34:17;;;;;;;31.35;18.48;;;0.90;99.90;;;;;;5077669;28;20200;-59
2024/01/13 07:36:45;;;;;;;32.33;19.30;;;0.90;99.90;;;;;;5077753;28;20299;-59
2024/01/13 07:39:14;;;;;;;29.38;17.88;;;0.90;99.90;;;;;;5077793;28;20255;-58
2024/01/13 07:41:43;;;;;;;31.20;17.50;;;0.90;99.90;;;;;;5077686;28;20211;-59
2024/01/13 07:44:11;;;;;;;31.67;18.02;;;0.90;99.90;;;;;;5077669;28;20702;-59
2024/01/13 07:46:42;;;;;;;34.15;19.50;;;1.00;99.90;;;;;;5077633;28;20292;-62
2024/01/13 07:49:10;;;;;;;30.23;18.13;;;0.90;99.90;;;;;;5077269;28;20717;-58
2024/01/13 07:51:39;;;;;;;29.50;16.95;;;0.90;99.90;;;;;;5077598;28;20248;-58
2024/01/13 07:54:07;;;;;;;32.92;18.70;;;0.80;99.90;;;;;;5077852;28;20201;-62
2024/01/13 07:56:35;;;;;;;32.47;18.50;;;0.80;99.90;;;;;;5077715;28;20202;-62
2024/01/13 07:59:05;;;;;;;31.38;18.30;;;0.80;99.90;;;;;;5077527;28;20266;-60
2024/01/13 08:01:33;;;;;;;31.17;17.95;;;0.90;99.90;;;;;;5077525;28;20208;-58
2024/01/13 08:04:06;;;;;;;29.80;18.20;;;1.00;99.90;;;;;;5077663;28;20592;-58
2024/01/13 08:06:35;;;;;;;31.67;17.50;;;1.00;99.90;;;;;;5077746;28;20212;-57
2024/01/13 08:09:03;;;;;;;30.02;17.73;;;1.00;99.90;;;;;;5077622;28;20595;-59
2024/01/13 08:11:31;;;;;;;35.90;19.20;;;1.00;99.90;;;;;;5077370;28;20209;-61
2024/01/13 08:14:08;;;;;;;31.15;17.85;;;1.00;99.90;;;;;;5077758;28;20201;-58
2024/01/13 08:16:36;;;;;;;34.25;18.38;;;1.00;99.90;;;;;;5077371;28;20682;-59
2024/01/13 08:19:04;;;;;;;31.55;18.92;;;1.00;99.90;;;;;;5077386;28;20233;-59
2024/01/13 08:21:32;;;;;;;32.60;18.13;;;1.00;99.90;;;;;;5077368;28;20209;-58
2024/01/13 08:24:09;;;;;;;31.95;19.13;;;1.00;99.90;;;;;;5077305;28;20225;-59
2024/01/13 08:26:38;;;;;;;36.47;19.65;;;1.00;99.90;;;;;;5077617;28;20228;-58
2024/01/13 08:29:08;;;;;;;33.05;19.38;;;0.90;99.90;;;;;;5077344;28;20312;-58
2024/01/13 08:31:35;;;;;;;32.90;19.02;;;0.90;99.90;;;;;;5077409;28;20240;-58
2024/01/13 08:34:08;;;;;;;31.80;19.02;;;0.90;99.90;;;;;;5073663;28;20243;-60
2024/01/13 08:36:38;;;;;;;32.78;18.70;;;0.90;99.90;;;;;;5073972;28;20288;-60
2024/01/13 08:39:06;;;;;;;34.25;20.15;;;0.90;99.90;;;;;;5074214;28;21123;-59
2024/01/13 08:41:34;;;;;;;37.40;20.85;;;0.90;99.90;;;;;;5073996;28;20202;-62
2024/01/13 08:44:02;;;;;;;38.05;20.65;;;0.90;99.90;;;;;;5074049;28;20296;-59
2024/01/13 08:46:32;;;;;;;34.25;19.35;;;0.90;99.90;;;;;;5073911;28;20211;-60
2024/01/13 08:49:00;;;;;;;32.97;17.85;;;0.90;99.90;;;;;;5073795;28;20267;-57
2024/01/13 08:51:28;;;;;;;32.70;18.88;;;0.90;99.90;;;;;;5073978;28;20227;-58
2024/01/13 08:54:03;;;;;;;31.20;17.48;;;0.90;99.90;;;;;;5074067;28;20309;-56
2024/01/13 08:56:34;;;;;;;29.45;17.95;;;0.90;99.90;;;;;;5073639;28;20206;-58
2024/01/13 08:59:02;;;;;;;34.22;18.73;;;1.00;99.90;;;;;;5073401;28;20243;-57
2024/01/13 09:01:31;;;;;;;30.98;17.42;;;1.00;99.90;;;;;;5073489;28;20321;-59
2024/01/13 09:04:05;;;;;;;29.17;17.92;;;1.00;99.90;;;;;;5073971;28;20220;-60
2024/01/13 09:06:33;;;;;;;30.75;17.83;;;1.10;99.90;;;;;;5073311;28;20723;-58
2024/01/13 09:09:01;;;;;;;33.42;18.33;;;1.10;99.90;;;;;;5073418;28;20229;-60
2024/01/13 09:11:29;;;;;;;29.83;17.13;;;1.10;99.90;;;;;;5073293;28;20256;-60
2024/01/13 09:14:09;;;;;;;29.38;16.38;;;1.10;99.90;;;;;;5073381;28;20745;-58
2024/01/13 09:16:39;;;;;;;26.45;16.75;;;1.10;99.90;;;;;;5073621;28;20198;-58
2024/01/13 09:19:08;;;;;;;27.48;17.58;;;1.10;99.90;;;;;;5073441;28;20308;-62
2024/01/13 09:21:37;;;;;;;27.48;17.20;;;1.10;99.90;;;;;;5073347;28;20218;-59
2024/01/13 09:24:11;;;;;;;28.20;17.45;;;1.20;99.90;;;;;;5073360;28;20211;-58
2024/01/13 09:26:40;;;;;;;29.85;17.25;;;1.20;99.90;;;;;;5072876;28;20221;-60
2024/01/13 09:29:09;;;;;;;26.70;16.17;;;1.20;99.90;;;;;;5073173;28;20282;-59
2024/01/13 09:31:37;;;;;;;28.25;16.55;;;1.20;99.90;;;;;;5073061;28;20276;-59
2024/01/13 09:34:09;;;;;;;26.95;16.00;;;1.30;99.90;;;;;;5073160;28;20248;-62
2024/01/13 09:36:40;;;;;;;29.67;16.77;;;1.30;99.90;;;;;;5066113;28;20675;-60
2024/01/13 09:39:10;;;;;;;27.98;16.42;;;1.40;99.90;;;;;;5071871;28;20228;-58
2024/01/13 09:41:40;;;;;;;27.80;15.98;;;1.40;99.90;;;;;;5072312;28;20248;-60
2024/01/13 09:44:09;;;;;;;25.42;15.98;;;1.40;99.90;;;;;;5071799;28;20209;-61
2024/01/13 09:46:37;;;;;;;27.80;16.25;;;1.40;99.90;;;;;;5072427;28;20312;-57
2024/01/13 09:49:10;;;;;;;28.08;16.38;;;1.40;99.90;;;;;;5072060;28;20265;-58
2024/01/13 09:51:38;;;;;;;29.15;16.77;;;1.50;99.90;;;;;;5072049;28;20209;-61
2024/01/13 09:54:09;;;;;;;27.10;16.02;;;1.50;99.90;;;;;;5072292;28;20209;-56
2024/01/13 09:56:40;;;;;;;27.60;15.43;;;1.50;99.90;;;;;;5072312;28;20201;-58
2024/01/13 09:59:08;;;;;;;25.23;14.95;;;1.60;99.90;;;;;;5071676;28;20702;-62
2024/01/13 10:01:36;;;;;;;24.50;14.98;;;1.60;99.90;;;;;;5072167;28;20233;-59
2024/01/13 10:04:05;;;;;;;25.45;15.23;;;1.60;99.90;;;;;;5072001;28;20277;-62
2024/01/13 10:06:34;;;;;;;22.98;13.63;;;1.50;99.90;;;;;;5071686;28;20228;-59
2024/01/13 10:09:03;;;;;;;22.25;13.65;;;1.50;99.90;;;;;;5071733;28;20225;-57
2024/01/13 10:11:50;;;;;;;21.55;13.65;;;1.60;99.90;;;;;;5071778;28;20599;-56
2024/01/13 10:14:18;;;;;;;20.45;13.90;;;1.60;99.90;;;;;;5071872;28;20201;-55
2024/01/13 10:16:46;;;;;;;24.98;13.90;;;1.60;99.90;;;;;;5069240;28;20232;-65
2024/01/13 10:19:14;;;;;;;20.38;13.65;;;1.70;99.90;;;;;;5068566;28;20224;-55
2024/01/13 10:21:43;;;;;;;21.85;12.13;;;1.70;99.90;;;;;;5071767;28;20300;-56
2024/01/13 10:24:11;;;;;;;20.48;12.77;;;1.80;99.90;;;;;;5065640;28;20216;-56
2024/01/13 10:26:40;;;;;;;19.98;13.40;;;1.80;99.90;;;;;;5071737;28;20614;-56
2024/01/13 10:29:08;;;;;;;21.52;13.38;;;1.90;99.90;;;;;;5071176;28;20316;-56
2024/01/13 10:31:36;;;;;;;21.13;13.45;;;1.90;99.90;;;;;;5071559;28;20205;-56
2024/01/13 10:34:09;;;;;;;25.83;13.20;;;1.90;99.90;;;;;;5071741;28;20630;-56
2024/01/13 10:36:38;;;;;;;18.98;12.70;;;1.90;99.90;;;;;;5071028;28;20642;-58
2024/01/13 10:39:09;;;;;;;18.92;12.25;;;1.90;99.90;;;;;;5069152;28;20221;-58
2024/01/13 10:41:38;;;;;;;14.27;10.18;;;2.00;99.90;;;;;;5069667;28;20214;-56
2024/01/13 10:44:07;;;;;;;19.88;11.05;;;1.90;99.90;;;;;;5071203;28;20574;-55
2024/01/13 10:46:37;;;;;;;12.27;9.20;;;1.90;99.90;;;;;;5071723;28;20221;-58
2024/01/13 10:49:09;;;;;;;11.32;7.93;;;1.90;99.90;;;;;;5067052;28;20217;-59
2024/01/13 10:51:43;;;;;;;10.63;7.35;;;1.90;99.90;;;;;;5071668;28;20232;-59
2024/01/13 10:54:13;;;;;;;9.90;7.40;;;1.90;99.90;;;;;;5071425;28;20213;-60
2024/01/13 10:56:41;;;;;;;11.77;7.53;;;1.90;99.90;;;;;;5070802;28;20725;-55
2024/01/13 10:59:09;;;;;;;10.57;7.72;;;2.00;99.90;;;;;;5071049;28;20236;-61
2024/01/13 11:01:37;;;;;;;10.25;6.63;;;2.00;99.90;;;;;;5071143;28;20209;-61
2024/01/13 11:04:05;;;;;;;8.90;6.85;;;2.00;99.90;;;;;;5071577;28;20709;-61
2024/01/13 11:06:33;;;;;;;9.02;6.35;;;2.00;99.90;;;;;;5071354;28;20594;-60
2024/01/13 11:09:02;;;;;;;9.50;6.60;;;2.00;99.90;;;;;;5070690;28;20264;-61
2024/01/13 11:11:35;;;;;;;7.70;6.18;;;2.00;99.90;;;;;;5071503;28;20372;-61
2024/01/13 11:14:08;;;;;;;9.05;6.07;;;2.00;99.90;;;;;;5071622;28;20561;-61
2024/01/13 11:16:37;;;;;;;7.10;6.10;;;2.00;99.90;;;;;;5071299;28;20267;-61
2024/01/13 11:19:07;;;;;;;8.15;6.70;;;2.00;99.90;;;;;;5071042;28;20698;-61
2024/01/13 11:21:35;;;;;;;7.68;5.28;;;2.00;99.90;;;;;;5070881;28;20211;-61
2024/01/13 11:24:11;;;;;;;4.85;4.32;;;2.00;99.90;;;;;;5071707;28;20244;-60
2024/01/13 11:26:43;;;;;;;8.15;6.07;;;2.00;99.90;;;;;;5071232;28;20225;-61
2024/01/13 11:29:17;;;;;;;7.35;5.15;;;2.00;99.90;;;;;;5069634;28;20648;-61
2024/01/13 11:31:45;;;;;;;7.72;5.20;;;2.00;99.90;;;;;;5071006;28;20684;-60
2024/01/13 11:34:16;;;;;;;5.57;4.97;;;2.00;99.90;;;;;;5067215;28;20205;-61
2024/01/13 11:36:47;;;;;;;5.90;4.40;;;2.00;99.90;;;;;;5066845;28;20258;-61
2024/01/13 11:39:16;;;;;;;5.30;4.50;;;1.90;99.90;;;;;;5070999;28;20269;-60
2024/01/13 11:41:49;;;;;;;6.88;5.70;;;2.00;99.90;;;;;;5071089;28;20873;-61
2024/01/13 11:44:22;;;;;;;7.95;5.80;;;2.00;99.90;;;;;;5070845;28;20911;-61
2024/01/13 11:47:00;;;;;;;9.32;6.38;;;2.00;99.90;;;;;;5067619;28;20231;-61
2024/01/13 11:49:32;;;;;;;17.38;7.65;;;2.10;99.90;;;;;;5062281;28;20312;-62
2024/01/13 11:52:01;;;;;;;29.83;11.57;;;2.10;99.90;;;;;;5070513;28;20212;-62
2024/01/13 11:54:30;;;;;;;21.60;11.07;;;2.10;99.90;;;;;;5070757;28;20227;-62
2024/01/13 11:57:00;;;;;;;19.65;10.20;;;2.00;99.90;;;;;;5070880;28;20251;-61
2024/01/13 11:59:28;;;;;;;14.52;8.32;;;2.00;99.90;;;;;;5070291;28;20317;-61
2024/01/13 12:01:57;;;;;;;9.75;7.55;;;2.00;99.90;;;;;;5070527;28;20241;-62
2024/01/13 12:04:29;;;;;;;11.57;8.18;;;2.00;99.90;;;;;;5070069;28;20205;-61
2024/01/13 12:06:57;;;;;;;10.18;7.00;;;2.00;99.90;;;;;;5070366;28;20290;-62
2024/01/13 12:09:26;;;;;;;10.25;7.20;;;2.00;99.90;;;;;;5072823;28;20220;-62
2024/01/13 12:11:54;;;;;;;11.90;7.18;;;2.00;99.90;;;;;;5074665;28;20300;-61
2024/01/13 12:14:27;;;;;;;8.35;6.22;;;1.90;99.90;;;;;;5074855;28;20209;-61
2024/01/13 12:16:55;;;;;;;12.23;7.20;;;1.90;99.90;;;;;;5074331;28;20205;-62
2024/01/13 12:19:23;;;;;;;11.32;6.95;;;1.90;99.90;;;;;;5074159;28;20283;-62
2024/01/13 12:21:52;;;;;;;10.85;8.13;;;1.90;99.90;;;;;;5074140;28;20236;-62
2024/01/13 12:24:25;;;;;;;12.70;7.60;;;1.90;99.90;;;;;;5074415;28;20216;-62
2024/01/13 12:26:53;;;;;;;12.40;7.78;;;1.80;99.90;;;;;;5074240;28;20702;-62
2024/01/13 12:29:24;;;;;;;15.38;8.88;;;1.90;99.90;;;;;;5074430;28;20225;-62
2024/01/13 12:31:54;;;;;;;10.00;7.57;;;1.90;99.90;;;;;;5074201;28;20205;-62
2024/01/13 12:34:22;;;;;;;10.18;7.40;;;1.90;99.90;;;;;;5074077;28;20258;-61
2024/01/13 12:36:51;;;;;;;13.05;7.53;;;1.90;99.90;;;;;;5074316;28;20205;-62
2024/01/13 12:39:19;;;;;;;12.57;7.82;;;1.90;99.90;;;;;;5073712;28;20698;-62
2024/01/13 12:41:47;;;;;;;9.35;6.60;;;1.90;99.90;;;;;;5074053;28;20209;-62
2024/01/13 12:44:24;;;;;;;13.30;8.20;;;1.90;99.90;;;;;;5074017;28;20232;-62
2024/01/13 12:46:56;;;;;;;17.02;9.88;;;1.90;99.90;;;;;;5074026;28;20227;-62
2024/01/13 12:49:24;;;;;;;16.20;9.40;;;1.90;99.90;;;;;;5073781;28;20232;-62